createdAt,value
2024-02-29T00:00:35.721Z,0.00
2024-02-29T00:01:35.644Z,0.00
2024-02-29T00:02:35.553Z,0.00
2024-02-29T00:03:35.587Z,0.00
2024-02-29T00:04:35.585Z,0.00
2024-02-29T00:05:35.533Z,0.00
2024-02-29T00:06:35.548Z,0.00
2024-02-29T00:07:35.527Z,0.00
2024-02-29T00:08:35.544Z,0.00
2024-02-29T00:09:35.570Z,0.00
2024-02-29T00:10:35.514Z,0.00
2024-02-29T00:11:35.501Z,0.00
2024-02-29T00:12:35.559Z,0.00
2024-02-29T00:13:35.517Z,0.00
2024-02-29T00:14:35.504Z,0.00
2024-02-29T00:15:35.517Z,0.00
2024-02-29T00:16:35.461Z,0.00
2024-02-29T00:17:35.487Z,0.00
2024-02-29T00:18:35.490Z,0.00
2024-02-29T00:19:35.449Z,0.00
2024-02-29T00:20:35.431Z,0.00
2024-02-29T00:21:35.456Z,0.00
2024-02-29T00:22:35.449Z,0.00
2024-02-29T00:23:35.454Z,0.00
2024-02-29T00:24:35.402Z,0.00
2024-02-29T00:25:35.535Z,0.00
2024-02-29T00:26:35.390Z,0.00
2024-02-29T00:27:35.423Z,0.00
2024-02-29T00:28:35.409Z,0.00
2024-02-29T00:29:35.368Z,0.00
2024-02-29T00:30:35.415Z,0.00
2024-02-29T00:31:35.361Z,0.00
2024-02-29T00:32:35.559Z,0.00
2024-02-29T00:33:35.369Z,0.00
2024-02-29T00:34:35.337Z,0.00
2024-02-29T00:35:35.326Z,0.00
2024-02-29T00:36:35.419Z,0.00
2024-02-29T00:37:35.350Z,0.00
2024-02-29T00:38:35.299Z,0.00
2024-02-29T00:39:35.312Z,0.00
2024-02-29T00:40:35.286Z,0.00
2024-02-29T00:41:35.311Z,0.00
2024-02-29T00:42:35.307Z,0.00
2024-02-29T00:43:35.271Z,0.00
2024-02-29T00:44:35.257Z,0.00
2024-02-29T00:45:35.274Z,0.00
2024-02-29T00:46:35.269Z,0.00
2024-02-29T00:47:36.265Z,0.00
2024-02-29T00:48:35.266Z,0.00
2024-02-29T00:49:35.230Z,0.00
2024-02-29T00:50:35.286Z,0.00
2024-02-29T00:51:35.304Z,0.00
2024-02-29T00:52:35.210Z,0.00
2024-02-29T00:53:35.198Z,0.00
2024-02-29T00:54:35.235Z,0.00
2024-02-29T00:55:35.204Z,0.00
2024-02-29T00:56:35.205Z,0.00
2024-02-29T00:57:35.208Z,0.00
2024-02-29T00:58:35.160Z,0.00
2024-02-29T00:59:35.149Z,0.00
2024-02-29T01:00:35.209Z,0.00
2024-02-29T01:01:35.227Z,0.00
2024-02-29T01:02:35.133Z,0.00
2024-02-29T01:03:35.521Z,0.00
2024-02-29T01:05:07.059Z,0.00
2024-02-29T01:05:35.107Z,0.00
2024-02-29T01:06:35.128Z,0.00
2024-02-29T01:07:35.102Z,0.00
2024-02-29T01:08:35.088Z,0.00
2024-02-29T01:09:35.142Z,0.00
2024-02-29T01:10:35.072Z,0.00
2024-02-29T01:11:35.075Z,0.00
2024-02-29T01:12:35.134Z,0.00
2024-02-29T01:13:35.051Z,0.00
2024-02-29T01:14:35.061Z,0.00
2024-02-29T01:15:35.064Z,0.00
2024-02-29T01:16:35.039Z,0.00
2024-02-29T01:17:35.073Z,0.00
2024-02-29T01:18:35.073Z,0.00
2024-02-29T01:19:35.036Z,0.00
2024-02-29T01:20:35.009Z,0.00
2024-02-29T01:21:35.086Z,0.00
2024-02-29T01:22:34.997Z,0.00
2024-02-29T01:23:35.011Z,0.00
2024-02-29T01:24:35.030Z,0.00
2024-02-29T01:25:34.961Z,0.00
2024-02-29T01:26:34.949Z,0.00
2024-02-29T01:27:34.968Z,0.00
2024-02-29T01:28:34.956Z,0.00
2024-02-29T01:29:34.924Z,0.00
2024-02-29T01:30:34.971Z,0.00
2024-02-29T01:31:34.945Z,0.00
2024-02-29T01:32:37.660Z,0.00
2024-02-29T01:33:34.955Z,0.00
2024-02-29T01:34:34.885Z,0.00
2024-02-29T01:35:34.896Z,0.00
2024-02-29T01:36:34.894Z,0.00
2024-02-29T01:37:34.894Z,0.00
2024-02-29T01:38:34.861Z,0.00
2024-02-29T01:39:34.854Z,0.00
2024-02-29T01:40:34.838Z,0.00
2024-02-29T01:41:34.837Z,0.00
2024-02-29T01:42:34.952Z,0.00
2024-02-29T01:43:34.817Z,0.00
2024-02-29T01:44:34.810Z,0.00
2024-02-29T01:45:34.866Z,0.00
2024-02-29T01:46:34.799Z,0.00
2024-02-29T01:47:34.873Z,0.00
2024-02-29T01:48:34.830Z,0.00
2024-02-29T01:49:34.793Z,0.00
2024-02-29T01:50:34.783Z,0.00
2024-02-29T01:51:34.823Z,0.00
2024-02-29T01:52:34.790Z,0.00
2024-02-29T01:53:34.953Z,0.00
2024-02-29T01:54:35.774Z,0.00
2024-02-29T01:55:34.721Z,0.00
2024-02-29T01:56:34.748Z,0.00
2024-02-29T01:57:34.763Z,0.00
2024-02-29T01:58:34.716Z,0.00
2024-02-29T01:59:34.762Z,0.00
2024-02-29T02:00:34.700Z,0.00
2024-02-29T02:01:34.977Z,0.00
2024-02-29T02:02:34.709Z,0.00
2024-02-29T02:03:34.717Z,0.00
2024-02-29T02:04:34.686Z,0.00
2024-02-29T02:05:34.656Z,0.00
2024-02-29T02:06:34.741Z,0.00
2024-02-29T02:07:34.652Z,0.00
2024-02-29T02:08:34.628Z,0.00
2024-02-29T02:09:34.669Z,0.00
2024-02-29T02:10:34.623Z,0.00
2024-02-29T02:11:34.649Z,0.00
2024-02-29T02:12:34.691Z,0.00
2024-02-29T02:13:34.592Z,0.00
2024-02-29T02:14:34.587Z,0.00
2024-02-29T02:15:34.677Z,0.00
2024-02-29T02:16:34.607Z,0.00
2024-02-29T02:17:34.583Z,0.00
2024-02-29T02:18:34.613Z,0.00
2024-02-29T02:19:34.583Z,0.00
2024-02-29T02:20:34.574Z,0.00
2024-02-29T02:21:34.590Z,0.00
2024-02-29T02:22:34.520Z,0.00
2024-02-29T02:23:34.519Z,0.00
2024-02-29T02:24:34.602Z,0.00
2024-02-29T02:25:34.528Z,0.00
2024-02-29T02:26:34.494Z,0.00
2024-02-29T02:27:34.522Z,0.00
2024-02-29T02:28:34.487Z,0.00
2024-02-29T02:29:34.478Z,0.00
2024-02-29T02:30:34.559Z,0.00
2024-02-29T02:31:34.458Z,0.00
2024-02-29T02:32:34.462Z,0.00
2024-02-29T02:33:34.453Z,0.00
2024-02-29T02:34:34.489Z,0.00
2024-02-29T02:35:34.465Z,0.00
2024-02-29T02:36:34.450Z,0.00
2024-02-29T02:37:34.415Z,0.00
2024-02-29T02:38:34.422Z,0.00
2024-02-29T02:39:34.442Z,0.00
2024-02-29T02:40:34.418Z,0.00
2024-02-29T02:41:34.391Z,0.00
2024-02-29T02:42:34.423Z,0.00
2024-02-29T02:43:34.373Z,0.00
2024-02-29T02:44:34.400Z,0.00
2024-02-29T02:45:34.417Z,0.00
2024-02-29T02:46:34.353Z,0.00
2024-02-29T02:47:34.386Z,0.00
2024-02-29T02:48:34.363Z,0.00
2024-02-29T02:49:34.350Z,0.00
2024-02-29T02:50:34.410Z,0.00
2024-02-29T02:51:34.378Z,0.00
2024-02-29T02:52:34.302Z,0.00
2024-02-29T02:53:34.329Z,0.00
2024-02-29T02:54:34.339Z,0.00
2024-02-29T02:55:34.292Z,0.00
2024-02-29T02:56:34.275Z,0.00
2024-02-29T02:57:34.293Z,0.00
2024-02-29T02:58:34.296Z,0.00
2024-02-29T02:59:34.270Z,0.00
2024-02-29T03:00:34.286Z,0.00
2024-02-29T03:01:34.274Z,0.00
2024-02-29T03:02:34.234Z,0.00
2024-02-29T03:03:34.278Z,0.00
2024-02-29T03:04:34.218Z,0.00
2024-02-29T03:05:34.210Z,0.00
2024-02-29T03:06:34.266Z,0.00
2024-02-29T03:07:34.226Z,0.00
2024-02-29T03:08:34.216Z,0.00
2024-02-29T03:09:34.280Z,0.00
2024-02-29T03:10:34.180Z,0.00
2024-02-29T03:11:34.222Z,0.00
2024-02-29T03:12:34.226Z,0.00
2024-02-29T03:13:34.155Z,0.00
2024-02-29T03:14:34.177Z,0.00
2024-02-29T03:15:34.186Z,0.00
2024-02-29T03:16:34.463Z,0.00
2024-02-29T03:17:34.228Z,0.00
2024-02-29T03:18:34.136Z,0.00
2024-02-29T03:19:34.113Z,0.00
2024-02-29T03:20:34.107Z,0.00
2024-02-29T03:21:34.236Z,0.00
2024-02-29T03:22:34.113Z,0.00
2024-02-29T03:23:34.099Z,0.00
2024-02-29T03:24:34.118Z,0.00
2024-02-29T03:25:34.082Z,0.00
2024-02-29T03:26:34.086Z,0.00
2024-02-29T03:27:34.116Z,0.00
2024-02-29T03:28:34.044Z,0.00
2024-02-29T03:29:34.043Z,0.00
2024-02-29T03:30:34.065Z,0.00
2024-02-29T03:31:34.052Z,0.00
2024-02-29T03:32:34.044Z,0.00
2024-02-29T03:33:34.037Z,0.00
2024-02-29T03:34:34.002Z,0.00
2024-02-29T03:35:34.006Z,0.00
2024-02-29T03:36:34.035Z,0.00
2024-02-29T03:37:33.978Z,0.00
2024-02-29T03:38:33.971Z,0.00
2024-02-29T03:39:34.014Z,0.00
2024-02-29T03:40:33.984Z,0.00
2024-02-29T03:41:33.983Z,0.00
2024-02-29T03:42:33.983Z,0.00
2024-02-29T03:43:33.945Z,0.00
2024-02-29T03:44:33.939Z,0.00
2024-02-29T03:45:34.007Z,0.00
2024-02-29T03:46:33.912Z,0.00
2024-02-29T03:47:33.936Z,0.00
2024-02-29T03:48:33.997Z,0.00
2024-02-29T03:49:33.893Z,0.00
2024-02-29T03:50:33.909Z,0.00
2024-02-29T03:51:33.911Z,0.00
2024-02-29T03:52:33.876Z,0.00
2024-02-29T03:53:33.869Z,0.00
2024-02-29T03:54:33.901Z,0.00
2024-02-29T03:55:33.869Z,0.00
2024-02-29T03:56:33.837Z,0.00
2024-02-29T03:57:33.840Z,0.00
2024-02-29T03:58:33.823Z,0.00
2024-02-29T03:59:33.847Z,0.00
2024-02-29T04:00:33.845Z,0.00
2024-02-29T04:01:33.889Z,0.00
2024-02-29T04:02:33.796Z,0.00
2024-02-29T04:03:33.802Z,0.00
2024-02-29T04:04:33.810Z,0.00
2024-02-29T04:05:33.763Z,0.00
2024-02-29T04:06:33.782Z,0.00
2024-02-29T04:07:33.757Z,0.00
2024-02-29T04:08:33.744Z,0.00
2024-02-29T04:09:33.817Z,0.00
2024-02-29T04:10:33.737Z,0.00
2024-02-29T04:11:33.723Z,0.00
2024-02-29T04:12:33.756Z,0.00
2024-02-29T04:13:33.730Z,0.00
2024-02-29T04:14:33.729Z,0.00
2024-02-29T04:15:33.741Z,0.00
2024-02-29T04:16:33.682Z,0.00
2024-02-29T04:17:33.916Z,0.00
2024-02-29T04:18:33.817Z,0.00
2024-02-29T04:19:33.669Z,0.00
2024-02-29T04:20:33.654Z,0.00
2024-02-29T04:21:33.693Z,0.00
2024-02-29T04:22:33.645Z,0.00
2024-02-29T04:23:33.668Z,0.00
2024-02-29T04:24:33.658Z,0.00
2024-02-29T04:25:33.625Z,0.00
2024-02-29T04:26:33.617Z,0.00
2024-02-29T04:27:33.715Z,0.00
2024-02-29T04:28:33.677Z,0.00
2024-02-29T04:29:33.623Z,0.00
2024-02-29T04:30:33.644Z,0.00
2024-02-29T04:31:33.600Z,0.00
2024-02-29T04:32:33.611Z,0.00
2024-02-29T04:33:33.610Z,0.00
2024-02-29T04:34:33.624Z,0.00
2024-02-29T04:35:33.560Z,0.00
2024-02-29T04:36:33.641Z,0.00
2024-02-29T04:37:33.581Z,0.00
2024-02-29T04:38:33.525Z,0.00
2024-02-29T04:39:33.553Z,0.00
2024-02-29T04:40:33.522Z,0.00
2024-02-29T04:41:33.529Z,0.00
2024-02-29T04:42:33.552Z,0.00
2024-02-29T04:43:33.493Z,0.00
2024-02-29T04:44:33.478Z,0.00
2024-02-29T04:45:33.483Z,0.00
2024-02-29T04:46:33.494Z,0.00
2024-02-29T04:47:33.511Z,0.00
2024-02-29T04:48:33.474Z,0.00
2024-02-29T04:49:33.443Z,0.00
2024-02-29T04:50:33.448Z,0.00
2024-02-29T04:51:33.482Z,0.00
2024-02-29T04:52:33.430Z,0.00
2024-02-29T04:53:33.412Z,0.00
2024-02-29T04:54:33.451Z,0.00
2024-02-29T04:55:33.396Z,0.00
2024-02-29T04:56:33.427Z,0.00
2024-02-29T04:57:33.385Z,0.00
2024-02-29T04:58:33.394Z,0.00
2024-02-29T04:59:33.378Z,0.00
2024-02-29T05:00:33.453Z,0.00
2024-02-29T05:01:33.492Z,0.00
2024-02-29T05:02:33.346Z,0.00
2024-02-29T05:03:33.400Z,0.00
2024-02-29T05:04:33.332Z,0.00
2024-02-29T05:05:33.356Z,0.00
2024-02-29T05:06:33.404Z,0.00
2024-02-29T05:07:33.314Z,0.00
2024-02-29T05:08:33.306Z,0.00
2024-02-29T05:09:33.315Z,0.00
2024-02-29T05:10:33.323Z,0.00
2024-02-29T05:11:35.053Z,0.00
2024-02-29T05:12:33.309Z,0.00
2024-02-29T05:13:33.285Z,0.00
2024-02-29T05:14:33.286Z,0.00
2024-02-29T05:15:33.295Z,0.00
2024-02-29T05:16:33.261Z,0.00
2024-02-29T05:17:33.272Z,0.00
2024-02-29T05:18:33.261Z,0.00
2024-02-29T05:19:33.253Z,0.00
2024-02-29T05:20:33.227Z,0.00
2024-02-29T05:21:33.227Z,0.00
2024-02-29T05:22:35.238Z,0.00
2024-02-29T05:23:33.229Z,0.00
2024-02-29T05:24:33.251Z,0.00
2024-02-29T05:25:33.182Z,0.00
2024-02-29T05:26:33.190Z,0.00
2024-02-29T05:27:33.197Z,0.00
2024-02-29T05:28:33.187Z,0.00
2024-02-29T05:29:33.188Z,0.00
2024-02-29T05:30:33.131Z,0.00
2024-02-29T05:31:34.144Z,0.00
2024-02-29T05:32:33.151Z,0.00
2024-02-29T05:33:33.242Z,0.00
2024-02-29T05:34:33.131Z,0.00
2024-02-29T05:35:33.113Z,0.00
2024-02-29T05:36:33.275Z,0.00
2024-02-29T05:37:33.105Z,0.00
2024-02-29T05:38:33.124Z,0.00
2024-02-29T05:39:33.146Z,0.00
2024-02-29T05:40:33.142Z,0.00
2024-02-29T05:41:33.065Z,0.00
2024-02-29T05:42:33.133Z,0.00
2024-02-29T05:43:35.512Z,0.00
2024-02-29T05:44:34.044Z,0.00
2024-02-29T05:45:33.069Z,0.00
2024-02-29T05:46:33.038Z,0.00
2024-02-29T05:47:33.100Z,0.00
2024-02-29T05:48:33.036Z,0.00
2024-02-29T05:49:33.029Z,0.00
2024-02-29T05:50:34.536Z,0.00
2024-02-29T05:51:34.044Z,0.00
2024-02-29T05:52:33.027Z,0.00
2024-02-29T05:53:32.990Z,5.62
2024-02-29T05:54:33.031Z,5.62
2024-02-29T05:55:32.959Z,5.62
2024-02-29T05:56:32.991Z,5.62
2024-02-29T05:57:32.989Z,11.25
2024-02-29T05:58:33.028Z,11.25
2024-02-29T05:59:32.940Z,11.25
2024-02-29T06:00:33.043Z,11.25
2024-02-29T06:01:32.993Z,16.88
2024-02-29T06:02:32.913Z,16.88
2024-02-29T06:03:32.949Z,16.88
2024-02-29T06:04:32.906Z,16.88
2024-02-29T06:05:32.907Z,22.50
2024-02-29T06:06:32.919Z,22.50
2024-02-29T06:07:32.881Z,28.12
2024-02-29T06:08:32.870Z,33.75
2024-02-29T06:09:32.892Z,33.75
2024-02-29T06:10:32.874Z,39.38
2024-02-29T06:11:32.908Z,45.00
2024-02-29T06:12:32.888Z,45.00
2024-02-29T06:13:32.843Z,50.62
2024-02-29T06:14:32.827Z,56.25
2024-02-29T06:15:32.852Z,61.88
2024-02-29T06:16:32.805Z,61.88
2024-02-29T06:17:32.849Z,67.50
2024-02-29T06:18:32.859Z,73.12
2024-02-29T06:19:32.788Z,78.75
2024-02-29T06:20:32.805Z,84.38
2024-02-29T06:21:32.876Z,90.00
2024-02-29T06:22:32.775Z,95.62
2024-02-29T06:23:32.787Z,101.25
2024-02-29T06:24:32.805Z,106.88
2024-02-29T06:25:32.770Z,112.50
2024-02-29T06:26:32.811Z,118.12
2024-02-29T06:27:32.783Z,123.75
2024-02-29T06:28:32.827Z,129.38
2024-02-29T06:29:32.735Z,129.38
2024-02-29T06:30:33.026Z,135.00
2024-02-29T06:31:32.707Z,140.62
2024-02-29T06:32:32.709Z,146.25
2024-02-29T06:33:32.732Z,157.50
2024-02-29T06:34:32.716Z,168.75
2024-02-29T06:35:32.683Z,180.00
2024-02-29T06:36:32.690Z,185.62
2024-02-29T06:37:32.703Z,208.12
2024-02-29T06:38:32.665Z,264.38
2024-02-29T06:39:32.694Z,360.00
2024-02-29T06:40:32.657Z,466.88
2024-02-29T06:41:32.631Z,495.00
2024-02-29T06:42:32.629Z,393.75
2024-02-29T06:43:33.435Z,421.88
2024-02-29T06:44:32.665Z,388.12
2024-02-29T06:45:32.620Z,348.75
2024-02-29T06:46:32.593Z,354.38
2024-02-29T06:47:32.605Z,405.00
2024-02-29T06:48:32.608Z,455.62
2024-02-29T06:49:32.563Z,500.62
2024-02-29T06:50:32.566Z,540.00
2024-02-29T06:51:32.553Z,613.12
2024-02-29T06:52:32.548Z,691.88
2024-02-29T06:53:32.578Z,781.88
2024-02-29T06:54:32.537Z,815.62
2024-02-29T06:55:32.519Z,911.25
2024-02-29T06:56:32.521Z,990.00
2024-02-29T06:57:32.535Z,1001.25
2024-02-29T06:58:32.520Z,866.25
2024-02-29T06:59:32.497Z,742.50
2024-02-29T07:00:32.484Z,748.12
2024-02-29T07:01:32.565Z,787.50
2024-02-29T07:02:32.507Z,832.50
2024-02-29T07:03:32.484Z,855.00
2024-02-29T07:04:32.460Z,990.00
2024-02-29T07:06:05.082Z,1085.62
2024-02-29T07:06:32.439Z,1181.25
2024-02-29T07:07:32.453Z,1282.50
2024-02-29T07:08:32.431Z,1282.50
2024-02-29T07:09:32.416Z,1310.62
2024-02-29T07:10:32.439Z,1299.38
2024-02-29T07:11:32.454Z,1299.38
2024-02-29T07:12:32.416Z,1305.00
2024-02-29T07:13:32.389Z,1282.50
2024-02-29T07:14:32.392Z,1248.75
2024-02-29T07:15:32.366Z,1254.38
2024-02-29T07:16:32.397Z,1316.25
2024-02-29T07:17:32.411Z,1378.12
2024-02-29T07:18:32.360Z,1400.62
2024-02-29T07:19:32.353Z,1406.25
2024-02-29T07:20:32.331Z,1406.25
2024-02-29T07:21:32.339Z,1445.62
2024-02-29T07:22:32.312Z,1496.25
2024-02-29T07:23:32.308Z,1417.50
2024-02-29T07:24:32.303Z,1203.75
2024-02-29T07:25:32.309Z,1057.50
2024-02-29T07:26:32.319Z,1018.12
2024-02-29T07:27:32.269Z,1023.75
2024-02-29T07:28:32.272Z,1018.12
2024-02-29T07:29:32.258Z,1029.38
2024-02-29T07:30:32.372Z,1046.25
2024-02-29T07:31:32.261Z,1051.88
2024-02-29T07:32:32.250Z,1074.38
2024-02-29T07:33:32.230Z,1096.88
2024-02-29T07:34:32.235Z,1119.38
2024-02-29T07:35:32.270Z,1125.00
2024-02-29T07:36:32.198Z,1136.25
2024-02-29T07:37:32.196Z,1153.12
2024-02-29T07:38:32.195Z,1181.25
2024-02-29T07:39:32.206Z,1203.75
2024-02-29T07:40:32.195Z,1243.12
2024-02-29T07:41:32.161Z,1271.25
2024-02-29T07:42:32.243Z,1305.00
2024-02-29T07:43:32.180Z,1361.25
2024-02-29T07:44:32.165Z,1501.88
2024-02-29T07:45:32.123Z,1580.62
2024-02-29T07:46:32.115Z,1586.25
2024-02-29T07:47:32.134Z,1535.62
2024-02-29T07:48:32.146Z,1507.50
2024-02-29T07:49:32.120Z,1372.50
2024-02-29T07:50:32.085Z,1237.50
2024-02-29T07:51:32.087Z,1237.50
2024-02-29T07:52:32.080Z,1271.25
2024-02-29T07:53:32.104Z,1181.25
2024-02-29T07:54:32.062Z,1153.12
2024-02-29T07:55:32.053Z,1108.12
2024-02-29T07:56:32.037Z,1215.00
2024-02-29T07:57:32.043Z,1164.38
2024-02-29T07:58:32.056Z,1186.88
2024-02-29T07:59:32.011Z,1158.75
2024-02-29T08:00:32.018Z,1198.12
2024-02-29T08:01:32.067Z,1164.38
2024-02-29T08:02:32.014Z,1254.38
2024-02-29T08:03:32.020Z,1288.12
2024-02-29T08:04:31.982Z,1361.25
2024-02-29T08:05:31.973Z,1389.38
2024-02-29T08:06:31.971Z,1361.25
2024-02-29T08:07:31.985Z,1350.00
2024-02-29T08:08:31.948Z,1310.62
2024-02-29T08:09:31.935Z,1333.12
2024-02-29T08:10:31.930Z,1361.25
2024-02-29T08:11:32.979Z,1344.38
2024-02-29T08:12:31.945Z,1327.50
2024-02-29T08:13:31.918Z,1366.88
2024-02-29T08:14:31.900Z,1389.38
2024-02-29T08:15:31.895Z,1395.00
2024-02-29T08:16:31.920Z,1411.88
2024-02-29T08:17:31.928Z,1456.88
2024-02-29T08:18:31.962Z,1485.00
2024-02-29T08:19:31.869Z,1496.25
2024-02-29T08:20:31.859Z,1507.50
2024-02-29T08:21:31.891Z,1530.00
2024-02-29T08:22:31.875Z,1558.12
2024-02-29T08:23:31.829Z,1625.62
2024-02-29T08:24:31.826Z,1636.88
2024-02-29T08:25:31.816Z,1693.12
2024-02-29T08:26:31.834Z,1698.75
2024-02-29T08:27:31.800Z,1800.00
2024-02-29T08:28:31.799Z,1828.12
2024-02-29T08:29:31.802Z,1906.88
2024-02-29T08:30:31.796Z,2002.50
2024-02-29T08:31:31.828Z,2266.88
2024-02-29T08:32:31.811Z,2671.88
2024-02-29T08:33:31.759Z,2671.88
2024-02-29T08:34:31.738Z,2255.62
2024-02-29T08:35:31.788Z,2025.00
2024-02-29T08:36:31.755Z,1833.75
2024-02-29T08:37:31.724Z,1625.62
2024-02-29T08:38:31.722Z,1468.12
2024-02-29T08:39:31.718Z,1321.88
2024-02-29T08:40:31.749Z,1181.25
2024-02-29T08:41:31.692Z,1198.12
2024-02-29T08:42:31.687Z,1164.38
2024-02-29T08:43:31.686Z,1130.62
2024-02-29T08:44:31.662Z,1091.25
2024-02-29T08:45:32.693Z,1063.12
2024-02-29T08:46:31.709Z,1040.62
2024-02-29T08:47:31.673Z,1018.12
2024-02-29T08:48:31.628Z,1012.50
2024-02-29T08:49:31.684Z,1001.25
2024-02-29T08:50:31.753Z,984.38
2024-02-29T08:51:31.616Z,1012.50
2024-02-29T08:52:31.654Z,1029.38
2024-02-29T08:53:31.600Z,995.62
2024-02-29T08:54:31.612Z,1006.88
2024-02-29T08:55:31.671Z,1012.50
2024-02-29T08:56:31.615Z,984.38
2024-02-29T08:57:31.564Z,978.75
2024-02-29T08:58:31.585Z,1012.50
2024-02-29T08:59:31.577Z,1023.75
2024-02-29T09:00:31.544Z,1035.00
2024-02-29T09:01:31.590Z,1012.50
2024-02-29T09:02:31.538Z,995.62
2024-02-29T09:03:31.558Z,978.75
2024-02-29T09:04:31.542Z,995.62
2024-02-29T09:05:31.505Z,978.75
2024-02-29T09:06:40.847Z,961.88
2024-02-29T09:07:33.520Z,978.75
2024-02-29T09:08:31.525Z,950.62
2024-02-29T09:09:31.484Z,939.38
2024-02-29T09:10:31.523Z,928.12
2024-02-29T09:11:31.478Z,916.88
2024-02-29T09:12:31.499Z,945.00
2024-02-29T09:13:35.625Z,945.00
2024-02-29T09:14:31.438Z,933.75
2024-02-29T09:15:31.438Z,928.12
2024-02-29T09:16:31.443Z,922.50
2024-02-29T09:17:31.463Z,916.88
2024-02-29T09:18:31.696Z,911.25
2024-02-29T09:19:31.439Z,911.25
2024-02-29T09:20:31.392Z,894.38
2024-02-29T09:21:31.385Z,888.75
2024-02-29T09:22:31.416Z,883.12
2024-02-29T09:23:31.365Z,877.50
2024-02-29T09:24:31.366Z,855.00
2024-02-29T09:25:31.355Z,832.50
2024-02-29T09:26:31.338Z,815.62
2024-02-29T09:27:31.388Z,781.88
2024-02-29T09:28:31.329Z,804.38
2024-02-29T09:29:34.180Z,804.38
2024-02-29T09:30:31.310Z,798.75
2024-02-29T09:31:31.375Z,770.62
2024-02-29T09:32:31.344Z,759.38
2024-02-29T09:33:31.297Z,748.12
2024-02-29T09:34:32.773Z,770.62
2024-02-29T09:35:31.295Z,781.88
2024-02-29T09:36:31.291Z,776.25
2024-02-29T09:37:31.329Z,770.62
2024-02-29T09:38:31.274Z,753.75
2024-02-29T09:39:31.240Z,765.00
2024-02-29T09:40:41.488Z,759.38
2024-02-29T09:42:33.214Z,736.88
2024-02-29T09:43:31.214Z,736.88
2024-02-29T09:44:31.222Z,731.25
2024-02-29T09:45:31.243Z,725.62
2024-02-29T09:46:31.214Z,720.00
2024-02-29T09:47:31.293Z,714.38
2024-02-29T09:48:31.181Z,703.12
2024-02-29T09:49:31.160Z,714.38
2024-02-29T09:50:31.220Z,708.75
2024-02-29T09:51:31.157Z,686.25
2024-02-29T09:52:31.165Z,680.62
2024-02-29T09:53:31.152Z,663.75
2024-02-29T09:54:31.127Z,658.12
2024-02-29T09:55:31.165Z,663.75
2024-02-29T09:56:31.110Z,675.00
2024-02-29T09:57:31.104Z,652.50
2024-02-29T09:58:31.098Z,663.75
2024-02-29T09:59:31.130Z,646.88
2024-02-29T10:00:31.109Z,635.62
2024-02-29T10:01:31.225Z,613.12
2024-02-29T10:02:31.086Z,624.38
2024-02-29T10:03:31.061Z,607.50
2024-02-29T10:04:31.100Z,618.75
2024-02-29T10:05:31.045Z,607.50
2024-02-29T10:06:31.050Z,624.38
2024-02-29T10:07:31.030Z,556.88
2024-02-29T10:08:31.027Z,613.12
2024-02-29T10:09:31.040Z,618.75
2024-02-29T10:10:31.099Z,607.50
2024-02-29T10:11:31.114Z,613.12
2024-02-29T10:12:30.986Z,590.62
2024-02-29T10:13:31.061Z,590.62
2024-02-29T10:14:31.002Z,585.00
2024-02-29T10:15:30.973Z,579.38
2024-02-29T10:16:31.561Z,568.12
2024-02-29T10:17:31.224Z,573.75
2024-02-29T10:18:30.971Z,573.75
2024-02-29T10:19:30.950Z,562.50
2024-02-29T10:20:30.926Z,568.12
2024-02-29T10:21:30.920Z,556.88
2024-02-29T10:22:30.947Z,556.88
2024-02-29T10:23:30.927Z,551.25
2024-02-29T10:24:30.896Z,534.38
2024-02-29T10:25:30.935Z,511.88
2024-02-29T10:26:30.880Z,495.00
2024-02-29T10:27:30.934Z,466.88
2024-02-29T10:28:30.897Z,450.00
2024-02-29T10:29:30.897Z,438.75
2024-02-29T10:30:30.890Z,433.12
2024-02-29T10:31:30.844Z,427.50
2024-02-29T10:32:30.885Z,421.88
2024-02-29T10:33:30.821Z,416.25
2024-02-29T10:34:30.854Z,416.25
2024-02-29T10:35:30.831Z,416.25
2024-02-29T10:36:30.804Z,410.62
2024-02-29T10:37:30.813Z,410.62
2024-02-29T10:38:30.792Z,410.62
2024-02-29T10:39:30.791Z,405.00
2024-02-29T10:40:30.855Z,410.62
2024-02-29T10:41:30.757Z,410.62
2024-02-29T10:42:31.908Z,410.62
2024-02-29T10:43:30.747Z,405.00
2024-02-29T10:44:30.734Z,410.62
2024-02-29T10:45:30.732Z,410.62
2024-02-29T10:46:30.749Z,405.00
2024-02-29T10:47:30.749Z,399.38
2024-02-29T10:48:30.698Z,399.38
2024-02-29T10:49:30.728Z,399.38
2024-02-29T10:50:30.692Z,393.75
2024-02-29T10:51:30.722Z,399.38
2024-02-29T10:52:30.746Z,399.38
2024-02-29T10:53:30.672Z,399.38
2024-02-29T10:54:30.663Z,399.38
2024-02-29T10:55:30.726Z,399.38
2024-02-29T10:56:30.733Z,399.38
2024-02-29T10:57:30.636Z,393.75
2024-02-29T10:58:30.629Z,393.75
2024-02-29T10:59:30.620Z,388.12
2024-02-29T11:00:30.646Z,388.12
2024-02-29T11:01:30.666Z,382.50
2024-02-29T11:02:30.601Z,382.50
2024-02-29T11:03:30.605Z,376.88
2024-02-29T11:04:30.639Z,376.88
2024-02-29T11:05:30.620Z,376.88
2024-02-29T11:06:30.569Z,376.88
2024-02-29T11:07:30.576Z,376.88
2024-02-29T11:08:30.547Z,371.25
2024-02-29T11:09:30.543Z,371.25
2024-02-29T11:10:30.582Z,365.62
2024-02-29T11:11:30.556Z,371.25
2024-02-29T11:12:30.547Z,371.25
2024-02-29T11:13:30.596Z,365.62
2024-02-29T11:14:30.512Z,365.62
2024-02-29T11:15:30.511Z,365.62
2024-02-29T11:16:30.578Z,360.00
2024-02-29T11:17:30.552Z,360.00
2024-02-29T11:18:30.457Z,360.00
2024-02-29T11:19:35.088Z,360.00
2024-02-29T11:20:32.801Z,360.00
2024-02-29T11:21:31.447Z,354.38
2024-02-29T11:22:30.432Z,354.38
2024-02-29T11:23:30.436Z,354.38
2024-02-29T11:24:30.469Z,354.38
2024-02-29T11:25:30.633Z,354.38
2024-02-29T11:26:30.406Z,354.38
2024-02-29T11:27:30.394Z,348.75
2024-02-29T11:28:30.432Z,354.38
2024-02-29T11:29:30.403Z,348.75
2024-02-29T11:30:30.367Z,343.12
2024-02-29T11:31:30.372Z,343.12
2024-02-29T11:32:30.465Z,337.50
2024-02-29T11:33:30.417Z,337.50
2024-02-29T11:34:30.395Z,343.12
2024-02-29T11:35:30.359Z,343.12
2024-02-29T11:36:30.345Z,343.12
2024-02-29T11:37:33.824Z,343.12
2024-02-29T11:38:36.507Z,343.12
2024-02-29T11:39:32.307Z,343.12
2024-02-29T11:40:30.296Z,343.12
2024-02-29T11:41:30.293Z,343.12
2024-02-29T11:42:30.297Z,343.12
2024-02-29T11:43:30.365Z,343.12
2024-02-29T11:44:30.258Z,337.50
2024-02-29T11:45:30.243Z,337.50
2024-02-29T11:46:30.335Z,343.12
2024-02-29T11:47:30.307Z,343.12
2024-02-29T11:48:30.217Z,343.12
2024-02-29T11:49:30.320Z,343.12
2024-02-29T11:50:30.204Z,343.12
2024-02-29T11:51:30.194Z,337.50
2024-02-29T11:52:30.209Z,337.50
2024-02-29T11:53:30.184Z,337.50
2024-02-29T11:54:30.177Z,337.50
2024-02-29T11:55:30.373Z,337.50
2024-02-29T11:56:31.185Z,337.50
2024-02-29T11:57:30.182Z,337.50
2024-02-29T11:58:30.168Z,337.50
2024-02-29T11:59:30.162Z,331.88
2024-02-29T12:00:30.158Z,331.88
2024-02-29T12:01:30.239Z,331.88
2024-02-29T12:02:30.131Z,331.88
2024-02-29T12:03:30.170Z,331.88
2024-02-29T12:04:30.132Z,331.88
2024-02-29T12:05:30.085Z,331.88
2024-02-29T12:06:30.098Z,331.88
2024-02-29T12:07:30.101Z,326.25
2024-02-29T12:08:30.065Z,326.25
2024-02-29T12:09:30.042Z,331.88
2024-02-29T12:10:30.277Z,320.62
2024-02-29T12:11:30.149Z,320.62
2024-02-29T12:12:30.046Z,326.25
2024-02-29T12:13:30.048Z,326.25
2024-02-29T12:14:30.061Z,326.25
2024-02-29T12:15:30.035Z,326.25
2024-02-29T12:16:30.074Z,320.62
2024-02-29T12:17:30.029Z,320.62
2024-02-29T12:18:29.984Z,320.62
2024-02-29T12:19:30.031Z,320.62
2024-02-29T12:20:30.010Z,320.62
2024-02-29T12:21:29.970Z,320.62
2024-02-29T12:22:30.005Z,320.62
2024-02-29T12:23:29.958Z,315.00
2024-02-29T12:24:29.931Z,320.62
2024-02-29T12:25:30.008Z,320.62
2024-02-29T12:26:29.913Z,315.00
2024-02-29T12:27:29.922Z,320.62
2024-02-29T12:28:30.023Z,315.00
2024-02-29T12:29:29.911Z,320.62
2024-02-29T12:30:29.912Z,315.00
2024-02-29T12:31:29.970Z,315.00
2024-02-29T12:32:29.872Z,315.00
2024-02-29T12:33:30.324Z,315.00
2024-02-29T12:34:29.997Z,315.00
2024-02-29T12:35:29.876Z,315.00
2024-02-29T12:36:29.931Z,315.00
2024-02-29T12:37:29.852Z,315.00
2024-02-29T12:38:29.814Z,315.00
2024-02-29T12:39:29.838Z,315.00
2024-02-29T12:40:29.877Z,315.00
2024-02-29T12:41:29.792Z,315.00
2024-02-29T12:42:29.785Z,315.00
2024-02-29T12:43:29.888Z,315.00
2024-02-29T12:44:29.792Z,315.00
2024-02-29T12:45:29.769Z,315.00
2024-02-29T12:46:30.013Z,315.00
2024-02-29T12:47:29.752Z,309.38
2024-02-29T12:48:29.798Z,309.38
2024-02-29T12:49:29.752Z,309.38